WetterOnline ( https://www.wetteronline.de )

Wetter aktuell Výsluní

Aktuelles Wetter: Fichtelberg (1215m)

6-stündlich | Neueste Meldungen
Ortszeit Temperatur Wetter
Mo, 17.06. 8:00 11.1° C bewölkt
Mo, 17.06. 2:00 11.8° C bewölkt
So, 16.06. 20:00 13.6° C wolkenlos
So, 16.06. 14:00 13.9° C bedeckt
So, 16.06. 8:00 9.7° C leicht bewölkt
So, 16.06. 2:00 7.9° C bedeckt
Sa, 15.06. 20:00 11.9° C leicht bewölkt
Sa, 15.06. 14:00 10.5° C bedeckt
Ortszeit Temperatur Wetter
Mo, 17.06. 8:00 11.1° C bewölkt
Mo, 17.06. 7:50 11.1° C bewölkt
Mo, 17.06. 7:40 11.1° C bedeckt
Mo, 17.06. 7:30 10.9° C bewölkt
Mo, 17.06. 7:20 10.9° C bewölkt
Mo, 17.06. 7:10 10.8° C bedeckt
Mo, 17.06. 7:00 10.6° C bedeckt
Mo, 17.06. 6:30 10.5° C bedeckt
Mo, 17.06. 6:00 10.4° C bewölkt
Mo, 17.06. 5:30 10.3° C bewölkt
Mo, 17.06. 5:00 10.1° C Sprühregen
Ortszeit Relative Feuchte Sichtweite
Mo, 17.06. 8:00 86% 60 km
Mo, 17.06. 2:00 79% 60 km
So, 16.06. 20:00 61% 65 km
So, 16.06. 14:00 62% 50 km
So, 16.06. 8:00 72% >70 km
So, 16.06. 2:00 83% >70 km
Sa, 15.06. 20:00 72% >70 km
Sa, 15.06. 14:00 94% >70 km
Ortszeit Relative Feuchte Sichtweite
Mo, 17.06. 8:00 86% 60 km
Mo, 17.06. 7:50 86% -
Mo, 17.06. 7:40 85% -
Mo, 17.06. 7:30 85% >70 km
Mo, 17.06. 7:20 85% -
Mo, 17.06. 7:10 85% -
Mo, 17.06. 7:00 86% 65 km
Mo, 17.06. 6:30 86% 50 km
Mo, 17.06. 6:00 86% 65 km
Mo, 17.06. 5:30 85% 55 km
Mo, 17.06. 5:00 87% 30 km
Ortszeit Niederschlagsmenge Niederschlagsart
Mo, 17.06. 8:00 0.1 l/m2 in 12 Std. Regen
Mo, 17.06. 2:00 0.1 l/m2 in 6 Std. Regen
So, 16.06. 20:00 0.1 l/m2 in 12 Std. Regen
So, 16.06. 14:00 0.0 l/m2 in 6 Std. -
So, 16.06. 8:00 0.0 l/m2 in 12 Std. -
So, 16.06. 2:00 0.0 l/m2 in 6 Std. -
Sa, 15.06. 20:00 5 l/m2 in 12 Std. -
Sa, 15.06. 14:00 5 l/m2 in 6 Std. Regen
Ortszeit Niederschlagsmenge Niederschlagsart
Mo, 17.06. 8:00 0.0 l/m2 in 1 Std. Regen
Mo, 17.06. 7:50 keine Meldung -
Mo, 17.06. 7:40 keine Meldung -
Mo, 17.06. 7:30 0.0 l/m2 in 30 Min -
Mo, 17.06. 7:20 keine Meldung -
Mo, 17.06. 7:10 keine Meldung -
Mo, 17.06. 7:00 0.0 l/m2 in 1 Std. -
Mo, 17.06. 6:30 0.0 l/m2 in 30 Min -
Mo, 17.06. 6:00 <0.05 l/m2 in 1 Std. Sprühregen
Mo, 17.06. 5:30 <0.05 l/m2 in 30 Min Schnee
Mo, 17.06. 5:00 0.1 l/m2 in 1 Std. Regen
Ortszeit Stärke Spitze Richtung
km/h Bft. km/h Grad Sektor
Mo, 17.06. 8:00 31 5 50 210° SW
Mo, 17.06. 2:00 40 6 54 240° SW
So, 16.06. 20:00 30 5 39 220° SW
So, 16.06. 14:00 19 3 50 230° SW
So, 16.06. 8:00 29 5 47 250° W
So, 16.06. 2:00 31 5 52 250° W
Sa, 15.06. 20:00 25 4 61 240° SW
Sa, 15.06. 14:00 32 5 83 250° W
Ortszeit Stärke Spitze Richtung
km/h Bft. km/h Grad Sektor
Mo, 17.06. 8:00 31 5 46 210° SW
Mo, 17.06. 7:50 31 5 - 210° SW
Mo, 17.06. 7:40 33 5 - 220° SW
Mo, 17.06. 7:30 35 5 46 220° SW
Mo, 17.06. 7:20 35 5 - 220° SW
Mo, 17.06. 7:10 37 5 - 220° SW
Mo, 17.06. 7:00 35 5 44 220° SW
Mo, 17.06. 6:30 36 5 43 230° SW
Mo, 17.06. 6:00 33 5 41 230° SW
Mo, 17.06. 5:30 33 5 41 230° SW
Mo, 17.06. 5:00 26 4 33 240° SW
Ortszeit Untergrenze Bedeckung Gattung
total tief tief mittel hoch
Mo, 17.06. 8:00 1800 m 8/8 5/8 - - -
Mo, 17.06. 2:00 1800 m 7/8 6/8 - - -
So, 16.06. 20:00 - 0/8 0/8 - - -
So, 16.06. 14:00 960 m 8/8 8/8 - - -
So, 16.06. 8:00 7500 m 4/8 0/8 - - -
So, 16.06. 2:00 4800 m 8/8 8/8 - - -
Sa, 15.06. 20:00 750 m 6/8 1/8 - - -
Sa, 15.06. 14:00 90 m 8/8 8/8 - - -
Ortszeit Bedeckungsgrad in Achtel und Wolkenuntergrenze
Mo, 17.06. 8:00 5(1800m) 8(4200m) 8(5400m)
Mo, 17.06. 7:50 5(1800m) 8(4200m) 8(5400m)
Mo, 17.06. 7:40 8
Mo, 17.06. 7:30 7(1500m) 8(4200m) 8(5100m)
Mo, 17.06. 7:20 7(1500m) 8(4200m) 8(5100m)
Mo, 17.06. 7:10 8
Mo, 17.06. 7:00 7(1800m) 8(2100m) 8(3300m)
Mo, 17.06. 6:30 3(1470m) 8(1800m)
Mo, 17.06. 6:00 7(2100m)
Mo, 17.06. 5:30 7(1800m) 7(2700m)
Mo, 17.06. 5:00 5(1800m) 6(3300m) 6(8100m)
Ortszeit Stationsdruck (hPa) Tendenz (hPa in 3 Std.)
Mo, 17.06. 8:00 878 + 0,3
Mo, 17.06. 2:00 877 + 0,3
So, 16.06. 20:00 876 + 0,1
So, 16.06. 14:00 876 - 0,1
So, 16.06. 8:00 876 + 0,6
So, 16.06. 2:00 876 + 0,1
Sa, 15.06. 20:00 875 + 0,5
Sa, 15.06. 14:00 874 + 0,4
Ortszeit Stationsdruck (hPa) Tendenz (hPa in 3 Std.)
Mo, 17.06. 8:00 878 + 0,3
Mo, 17.06. 7:50 878 keine Meldung
Mo, 17.06. 7:40 878 keine Meldung
Mo, 17.06. 7:30 878 + 0,1
Mo, 17.06. 7:20 878 keine Meldung
Mo, 17.06. 7:10 878 keine Meldung
Mo, 17.06. 7:00 878 + 0,2
Mo, 17.06. 6:30 878 + 0,3
Mo, 17.06. 6:00 878 + 0,1
Mo, 17.06. 5:30 878 + 0,2
Mo, 17.06. 5:00 878 + 0,4
Ortszeit Schneehöhe (cm)
Mo, 17.06. 8:00 0
Mo, 17.06. 2:00 0
So, 16.06. 20:00 0
So, 16.06. 14:00 0
So, 16.06. 8:00 0
So, 16.06. 2:00 0
Sa, 15.06. 20:00 0
Sa, 15.06. 14:00 0
Ortszeit Schneehöhe (cm)
Mo, 17.06. 8:00 0
Mo, 17.06. 7:50 0
Mo, 17.06. 7:40 -
Mo, 17.06. 7:30 0
Mo, 17.06. 7:20 0
Mo, 17.06. 7:10 -
Mo, 17.06. 7:00 0
Mo, 17.06. 6:30 0
Mo, 17.06. 6:00 0
Mo, 17.06. 5:30 0
Mo, 17.06. 5:00 0
Link zu dieser Seite / Seite empfehlen

Das Wetter in ...